sensor_id;sensor_type;location;lat;lon;timestamp;temperature;humidity
41447;DHT22;27185;52.040;4.490;2023-02-20T00:02:22;9.30;99.90
41447;DHT22;27185;52.040;4.490;2023-02-20T00:05:07;9.40;99.90
41447;DHT22;27185;52.040;4.490;2023-02-20T00:07:52;9.30;99.90
41447;DHT22;27185;52.040;4.490;2023-02-20T00:10:38;9.20;99.90
41447;DHT22;27185;52.040;4.490;2023-02-20T00:13:24;9.20;99.90
41447;DHT22;27185;52.040;4.490;2023-02-20T00:16:09;9.20;99.90
41447;DHT22;27185;52.040;4.490;2023-02-20T00:18:55;9.20;99.90
41447;DHT22;27185;52.040;4.490;2023-02-20T00:21:44;9.10;99.90
41447;DHT22;27185;52.040;4.490;2023-02-20T00:24:30;9.10;99.90
41447;DHT22;27185;52.040;4.490;2023-02-20T00:27:16;9.10;99.90
41447;DHT22;27185;52.040;4.490;2023-02-20T00:30:02;9.10;99.90
41447;DHT22;27185;52.040;4.490;2023-02-20T00:32:49;9.10;99.90
41447;DHT22;27185;52.040;4.490;2023-02-20T00:35:34;9.10;99.90
41447;DHT22;27185;52.040;4.490;2023-02-20T00:38:22;9.00;99.90
41447;DHT22;27185;52.040;4.490;2023-02-20T00:41:08;9.10;99.90
41447;DHT22;27185;52.040;4.490;2023-02-20T00:43:55;9.10;99.90
41447;DHT22;27185;52.040;4.490;2023-02-20T00:46:40;9.00;99.90
41447;DHT22;27185;52.040;4.490;2023-02-20T00:49:26;9.10;99.90
41447;DHT22;27185;52.040;4.490;2023-02-20T00:52:11;9.00;99.90
41447;DHT22;27185;52.040;4.490;2023-02-20T00:54:57;9.10;99.90
41447;DHT22;27185;52.040;4.490;2023-02-20T00:57:42;9.10;99.90
41447;DHT22;27185;52.040;4.490;2023-02-20T01:00:29;9.10;99.90
41447;DHT22;27185;52.040;4.490;2023-02-20T01:03:14;9.10;99.90
41447;DHT22;27185;52.040;4.490;2023-02-20T01:06:00;9.10;99.90
41447;DHT22;27185;52.040;4.490;2023-02-20T01:08:45;9.10;99.90
41447;DHT22;27185;52.040;4.490;2023-02-20T01:11:31;9.10;99.90
41447;DHT22;27185;52.040;4.490;2023-02-20T01:14:16;9.20;99.90
41447;DHT22;27185;52.040;4.490;2023-02-20T01:17:02;9.20;99.90
41447;DHT22;27185;52.040;4.490;2023-02-20T01:19:47;9.30;99.90
41447;DHT22;27185;52.040;4.490;2023-02-20T01:22:33;9.30;99.90
41447;DHT22;27185;52.040;4.490;2023-02-20T01:25:18;9.30;99.90
41447;DHT22;27185;52.040;4.490;2023-02-20T01:28:04;9.30;99.90
41447;DHT22;27185;52.040;4.490;2023-02-20T01:30:49;9.30;99.90
41447;DHT22;27185;52.040;4.490;2023-02-20T01:33:35;9.40;99.90
41447;DHT22;27185;52.040;4.490;2023-02-20T01:36:21;9.40;99.90
41447;DHT22;27185;52.040;4.490;2023-02-20T01:39:07;9.50;99.90
41447;DHT22;27185;52.040;4.490;2023-02-20T01:41:54;9.50;99.90
41447;DHT22;27185;52.040;4.490;2023-02-20T01:44:41;9.60;99.90
41447;DHT22;27185;52.040;4.490;2023-02-20T01:47:27;9.60;99.90
41447;DHT22;27185;52.040;4.490;2023-02-20T01:50:13;9.60;99.90
41447;DHT22;27185;52.040;4.490;2023-02-20T01:53:01;9.70;99.90
41447;DHT22;27185;52.040;4.490;2023-02-20T01:55:50;9.70;99.90
41447;DHT22;27185;52.040;4.490;2023-02-20T01:58:40;9.70;99.90
41447;DHT22;27185;52.040;4.490;2023-02-20T02:01:27;9.70;99.90
41447;DHT22;27185;52.040;4.490;2023-02-20T02:04:12;9.80;99.90
41447;DHT22;27185;52.040;4.490;2023-02-20T02:06:58;9.80;99.90
41447;DHT22;27185;52.040;4.490;2023-02-20T02:09:47;9.90;99.90
41447;DHT22;27185;52.040;4.490;2023-02-20T02:12:34;9.90;99.90
41447;DHT22;27185;52.040;4.490;2023-02-20T02:15:20;9.90;99.90
41447;DHT22;27185;52.040;4.490;2023-02-20T02:18:18;9.90;99.90
41447;DHT22;27185;52.040;4.490;2023-02-20T02:24:08;10.00;99.90
41447;DHT22;27185;52.040;4.490;2023-02-20T02:29:56;10.00;99.90
41447;DHT22;27185;52.040;4.490;2023-02-20T02:39:05;10.00;99.90
41447;DHT22;27185;52.040;4.490;2023-02-20T02:41:55;10.10;99.90
41447;DHT22;27185;52.040;4.490;2023-02-20T02:44:46;10.00;99.90
41447;DHT22;27185;52.040;4.490;2023-02-20T02:47:45;10.00;99.90
41447;DHT22;27185;52.040;4.490;2023-02-20T02:50:33;10.00;99.90
41447;DHT22;27185;52.040;4.490;2023-02-20T02:53:20;10.00;99.90
41447;DHT22;27185;52.040;4.490;2023-02-20T02:56:07;10.00;99.90
41447;DHT22;27185;52.040;4.490;2023-02-20T02:59:09;10.00;99.90
41447;DHT22;27185;52.040;4.490;2023-02-20T03:01:57;10.10;99.90
41447;DHT22;27185;52.040;4.490;2023-02-20T03:04:44;10.10;99.90
41447;DHT22;27185;52.040;4.490;2023-02-20T03:07:31;10.20;99.90
41447;DHT22;27185;52.040;4.490;2023-02-20T03:10:17;10.20;99.90
41447;DHT22;27185;52.040;4.490;2023-02-20T03:13:15;10.30;99.90
41447;DHT22;27185;52.040;4.490;2023-02-20T03:16:01;10.30;99.90
41447;DHT22;27185;52.040;4.490;2023-02-20T03:18:46;10.40;99.90
41447;DHT22;27185;52.040;4.490;2023-02-20T03:21:32;10.40;99.90
41447;DHT22;27185;52.040;4.490;2023-02-20T03:24:19;10.40;99.90
41447;DHT22;27185;52.040;4.490;2023-02-20T03:27:05;10.30;99.90
41447;DHT22;27185;52.040;4.490;2023-02-20T03:29:51;10.40;99.90
41447;DHT22;27185;52.040;4.490;2023-02-20T03:32:39;10.40;99.90
41447;DHT22;27185;52.040;4.490;2023-02-20T03:35:44;10.50;99.90
41447;DHT22;27185;52.040;4.490;2023-02-20T03:38:52;10.50;99.90
41447;DHT22;27185;52.040;4.490;2023-02-20T03:41:58;10.60;99.90
41447;DHT22;27185;52.040;4.490;2023-02-20T03:45:03;10.50;99.90
41447;DHT22;27185;52.040;4.490;2023-02-20T03:47:50;10.60;99.90
41447;DHT22;27185;52.040;4.490;2023-02-20T03:50:37;10.60;99.90
41447;DHT22;27185;52.040;4.490;2023-02-20T03:53:22;10.60;99.90
41447;DHT22;27185;52.040;4.490;2023-02-20T03:56:09;10.60;99.90
41447;DHT22;27185;52.040;4.490;2023-02-20T03:59:00;10.60;99.90
41447;DHT22;27185;52.040;4.490;2023-02-20T04:01:48;10.60;99.90
41447;DHT22;27185;52.040;4.490;2023-02-20T04:04:39;10.70;99.90
41447;DHT22;27185;52.040;4.490;2023-02-20T04:07:28;10.70;99.90
41447;DHT22;27185;52.040;4.490;2023-02-20T04:10:16;10.70;99.90
41447;DHT22;27185;52.040;4.490;2023-02-20T04:13:05;10.70;99.90
41447;DHT22;27185;52.040;4.490;2023-02-20T04:15:51;10.70;99.90
41447;DHT22;27185;52.040;4.490;2023-02-20T04:18:37;10.60;99.90
41447;DHT22;27185;52.040;4.490;2023-02-20T04:21:25;10.60;99.90
41447;DHT22;27185;52.040;4.490;2023-02-20T04:24:20;10.70;99.90
41447;DHT22;27185;52.040;4.490;2023-02-20T04:27:07;10.70;99.90
41447;DHT22;27185;52.040;4.490;2023-02-20T04:29:52;10.70;99.90
41447;DHT22;27185;52.040;4.490;2023-02-20T04:32:38;10.70;99.90
41447;DHT22;27185;52.040;4.490;2023-02-20T04:35:24;10.70;99.90
41447;DHT22;27185;52.040;4.490;2023-02-20T04:38:09;10.70;99.90
41447;DHT22;27185;52.040;4.490;2023-02-20T04:40:55;10.70;99.90
41447;DHT22;27185;52.040;4.490;2023-02-20T04:43:40;10.70;99.90
41447;DHT22;27185;52.040;4.490;2023-02-20T04:46:26;10.70;99.90
41447;DHT22;27185;52.040;4.490;2023-02-20T04:49:12;10.70;99.90
41447;DHT22;27185;52.040;4.490;2023-02-20T04:51:57;10.70;99.90
41447;DHT22;27185;52.040;4.490;2023-02-20T04:54:43;10.70;99.90
41447;DHT22;27185;52.040;4.490;2023-02-20T04:57:28;10.70;99.90
41447;DHT22;27185;52.040;4.490;2023-02-20T05:00:14;10.60;99.90
41447;DHT22;27185;52.040;4.490;2023-02-20T05:03:00;10.70;99.90
41447;DHT22;27185;52.040;4.490;2023-02-20T05:05:46;10.70;99.90
41447;DHT22;27185;52.040;4.490;2023-02-20T05:08:33;10.70;99.90
41447;DHT22;27185;52.040;4.490;2023-02-20T05:11:18;10.70;99.90
41447;DHT22;27185;52.040;4.490;2023-02-20T05:14:04;10.50;99.90
41447;DHT22;27185;52.040;4.490;2023-02-20T05:16:50;10.60;99.90
41447;DHT22;27185;52.040;4.490;2023-02-20T05:19:35;10.60;99.90
41447;DHT22;27185;52.040;4.490;2023-02-20T05:22:21;10.60;99.90
41447;DHT22;27185;52.040;4.490;2023-02-20T05:25:07;10.60;99.90
41447;DHT22;27185;52.040;4.490;2023-02-20T05:27:54;10.50;99.90
41447;DHT22;27185;52.040;4.490;2023-02-20T05:30:39;10.50;99.90
41447;DHT22;27185;52.040;4.490;2023-02-20T05:33:25;10.50;99.90
41447;DHT22;27185;52.040;4.490;2023-02-20T05:36:10;10.50;99.90
41447;DHT22;27185;52.040;4.490;2023-02-20T05:38:56;10.50;99.90
41447;DHT22;27185;52.040;4.490;2023-02-20T05:41:41;10.40;99.90
41447;DHT22;27185;52.040;4.490;2023-02-20T05:44:27;10.40;99.90
41447;DHT22;27185;52.040;4.490;2023-02-20T05:47:12;10.40;99.90
41447;DHT22;27185;52.040;4.490;2023-02-20T05:49:58;10.50;99.90
41447;DHT22;27185;52.040;4.490;2023-02-20T05:52:43;10.50;99.90
41447;DHT22;27185;52.040;4.490;2023-02-20T05:55:29;10.50;99.90
41447;DHT22;27185;52.040;4.490;2023-02-20T05:58:15;10.40;99.90
41447;DHT22;27185;52.040;4.490;2023-02-20T06:01:00;10.40;99.90
41447;DHT22;27185;52.040;4.490;2023-02-20T06:03:46;10.40;99.90
41447;DHT22;27185;52.040;4.490;2023-02-20T06:06:41;10.40;99.90
41447;DHT22;27185;52.040;4.490;2023-02-20T06:09:26;10.40;99.90
41447;DHT22;27185;52.040;4.490;2023-02-20T06:12:12;10.40;99.90
41447;DHT22;27185;52.040;4.490;2023-02-20T06:14:58;10.30;99.90
41447;DHT22;27185;52.040;4.490;2023-02-20T06:17:44;10.30;99.90
41447;DHT22;27185;52.040;4.490;2023-02-20T06:20:29;10.30;99.90
41447;DHT22;27185;52.040;4.490;2023-02-20T06:23:15;10.30;99.90
41447;DHT22;27185;52.040;4.490;2023-02-20T06:26:00;10.30;99.90
41447;DHT22;27185;52.040;4.490;2023-02-20T06:28:46;10.30;99.90
41447;DHT22;27185;52.040;4.490;2023-02-20T06:31:34;10.30;99.90
41447;DHT22;27185;52.040;4.490;2023-02-20T06:34:20;10.40;99.90
41447;DHT22;27185;52.040;4.490;2023-02-20T06:37:07;10.30;99.90
41447;DHT22;27185;52.040;4.490;2023-02-20T06:39:53;10.30;99.90
41447;DHT22;27185;52.040;4.490;2023-02-20T06:42:38;10.30;99.90
41447;DHT22;27185;52.040;4.490;2023-02-20T06:45:24;10.30;99.90
41447;DHT22;27185;52.040;4.490;2023-02-20T06:48:09;10.40;99.90
41447;DHT22;27185;52.040;4.490;2023-02-20T06:50:55;10.40;99.90
41447;DHT22;27185;52.040;4.490;2023-02-20T06:53:41;10.40;99.90
41447;DHT22;27185;52.040;4.490;2023-02-20T06:56:27;10.30;99.90
41447;DHT22;27185;52.040;4.490;2023-02-20T06:59:13;10.40;99.90
41447;DHT22;27185;52.040;4.490;2023-02-20T07:01:59;10.40;99.90
41447;DHT22;27185;52.040;4.490;2023-02-20T07:04:48;10.40;99.90
41447;DHT22;27185;52.040;4.490;2023-02-20T07:07:34;10.40;99.90
41447;DHT22;27185;52.040;4.490;2023-02-20T07:10:19;10.50;99.90
41447;DHT22;27185;52.040;4.490;2023-02-20T07:13:05;10.50;99.90
41447;DHT22;27185;52.040;4.490;2023-02-20T07:15:50;10.50;99.90
41447;DHT22;27185;52.040;4.490;2023-02-20T07:18:36;10.50;99.90
41447;DHT22;27185;52.040;4.490;2023-02-20T07:21:22;10.60;99.90
41447;DHT22;27185;52.040;4.490;2023-02-20T07:24:07;10.50;99.90
41447;DHT22;27185;52.040;4.490;2023-02-20T07:26:53;10.50;99.90
41447;DHT22;27185;52.040;4.490;2023-02-20T07:29:38;10.40;99.90
41447;DHT22;27185;52.040;4.490;2023-02-20T07:32:25;10.50;99.90
41447;DHT22;27185;52.040;4.490;2023-02-20T07:35:11;10.50;99.90
41447;DHT22;27185;52.040;4.490;2023-02-20T07:37:56;10.60;99.90
41447;DHT22;27185;52.040;4.490;2023-02-20T07:40:42;10.50;99.90
41447;DHT22;27185;52.040;4.490;2023-02-20T07:43:28;10.40;99.90
41447;DHT22;27185;52.040;4.490;2023-02-20T07:46:13;10.60;99.90
41447;DHT22;27185;52.040;4.490;2023-02-20T07:49:03;10.70;99.90
41447;DHT22;27185;52.040;4.490;2023-02-20T07:51:48;10.60;99.90
41447;DHT22;27185;52.040;4.490;2023-02-20T07:54:34;10.70;99.90
41447;DHT22;27185;52.040;4.490;2023-02-20T07:57:19;10.70;99.90
41447;DHT22;27185;52.040;4.490;2023-02-20T08:00:05;10.70;99.90
41447;DHT22;27185;52.040;4.490;2023-02-20T08:02:51;10.70;99.90
41447;DHT22;27185;52.040;4.490;2023-02-20T08:05:36;10.70;99.90
41447;DHT22;27185;52.040;4.490;2023-02-20T08:08:22;10.80;99.90
41447;DHT22;27185;52.040;4.490;2023-02-20T08:11:08;10.80;99.90
41447;DHT22;27185;52.040;4.490;2023-02-20T08:13:54;10.80;99.90
41447;DHT22;27185;52.040;4.490;2023-02-20T08:16:39;10.80;99.90
41447;DHT22;27185;52.040;4.490;2023-02-20T08:19:25;10.90;99.90
41447;DHT22;27185;52.040;4.490;2023-02-20T08:22:10;10.90;99.90
41447;DHT22;27185;52.040;4.490;2023-02-20T08:24:56;10.80;99.90
41447;DHT22;27185;52.040;4.490;2023-02-20T08:27:42;10.90;99.90
41447;DHT22;27185;52.040;4.490;2023-02-20T08:30:28;10.70;99.90
41447;DHT22;27185;52.040;4.490;2023-02-20T08:33:14;10.70;99.90
41447;DHT22;27185;52.040;4.490;2023-02-20T08:35:59;10.80;99.90
41447;DHT22;27185;52.040;4.490;2023-02-20T08:39:13;10.70;99.90
41447;DHT22;27185;52.040;4.490;2023-02-20T08:41:59;10.80;99.90
41447;DHT22;27185;52.040;4.490;2023-02-20T08:44:44;10.80;99.90
41447;DHT22;27185;52.040;4.490;2023-02-20T08:47:30;10.90;99.90
41447;DHT22;27185;52.040;4.490;2023-02-20T08:50:16;10.90;99.90
41447;DHT22;27185;52.040;4.490;2023-02-20T08:53:02;10.90;99.90
41447;DHT22;27185;52.040;4.490;2023-02-20T08:55:48;10.90;99.90
41447;DHT22;27185;52.040;4.490;2023-02-20T08:58:34;10.90;99.90
41447;DHT22;27185;52.040;4.490;2023-02-20T09:01:19;10.90;99.90
41447;DHT22;27185;52.040;4.490;2023-02-20T09:04:05;11.00;99.90
41447;DHT22;27185;52.040;4.490;2023-02-20T09:06:50;11.10;99.90
41447;DHT22;27185;52.040;4.490;2023-02-20T09:09:35;11.00;99.90
41447;DHT22;27185;52.040;4.490;2023-02-20T09:12:21;11.00;99.90
41447;DHT22;27185;52.040;4.490;2023-02-20T09:15:07;11.10;99.90
41447;DHT22;27185;52.040;4.490;2023-02-20T09:17:53;11.10;99.90
41447;DHT22;27185;52.040;4.490;2023-02-20T09:20:39;11.10;99.90
41447;DHT22;27185;52.040;4.490;2023-02-20T09:23:24;11.20;99.90
41447;DHT22;27185;52.040;4.490;2023-02-20T09:26:11;11.10;99.90
41447;DHT22;27185;52.040;4.490;2023-02-20T09:28:57;11.20;99.90
41447;DHT22;27185;52.040;4.490;2023-02-20T09:31:42;11.20;99.90
41447;DHT22;27185;52.040;4.490;2023-02-20T09:34:28;11.20;99.90
41447;DHT22;27185;52.040;4.490;2023-02-20T09:37:13;11.20;99.90
41447;DHT22;27185;52.040;4.490;2023-02-20T09:39:59;11.20;99.90
41447;DHT22;27185;52.040;4.490;2023-02-20T09:45:36;11.20;99.90
41447;DHT22;27185;52.040;4.490;2023-02-20T09:48:30;11.10;99.90
41447;DHT22;27185;52.040;4.490;2023-02-20T09:52:22;11.20;99.90
41447;DHT22;27185;52.040;4.490;2023-02-20T09:55:19;11.10;99.90
41447;DHT22;27185;52.040;4.490;2023-02-20T09:58:17;11.30;99.90
41447;DHT22;27185;52.040;4.490;2023-02-20T10:01:05;11.20;99.90
41447;DHT22;27185;52.040;4.490;2023-02-20T10:06:45;11.30;99.90
41447;DHT22;27185;52.040;4.490;2023-02-20T10:09:32;11.20;99.90
41447;DHT22;27185;52.040;4.490;2023-02-20T10:12:40;11.20;99.90
41447;DHT22;27185;52.040;4.490;2023-02-20T10:22:33;11.10;99.90
41447;DHT22;27185;52.040;4.490;2023-02-20T10:25:22;11.10;99.90
41447;DHT22;27185;52.040;4.490;2023-02-20T10:28:14;11.20;99.90
41447;DHT22;27185;52.040;4.490;2023-02-20T10:34:07;11.10;99.90
41447;DHT22;27185;52.040;4.490;2023-02-20T10:36:59;11.20;99.90
41447;DHT22;27185;52.040;4.490;2023-02-20T10:40:04;11.10;99.90
41447;DHT22;27185;52.040;4.490;2023-02-20T10:43:04;11.10;99.90
41447;DHT22;27185;52.040;4.490;2023-02-20T10:45:51;11.20;99.90
41447;DHT22;27185;52.040;4.490;2023-02-20T10:48:39;11.20;99.90
41447;DHT22;27185;52.040;4.490;2023-02-20T10:51:31;11.10;99.90
41447;DHT22;27185;52.040;4.490;2023-02-20T10:54:24;11.20;99.90
41447;DHT22;27185;52.040;4.490;2023-02-20T10:57:29;11.30;99.90
41447;DHT22;27185;52.040;4.490;2023-02-20T11:00:29;11.30;99.90
41447;DHT22;27185;52.040;4.490;2023-02-20T11:03:23;11.20;99.90
41447;DHT22;27185;52.040;4.490;2023-02-20T11:06:13;11.10;99.90
41447;DHT22;27185;52.040;4.490;2023-02-20T11:09:00;11.20;99.90
41447;DHT22;27185;52.040;4.490;2023-02-20T11:11:46;11.30;99.90
41447;DHT22;27185;52.040;4.490;2023-02-20T11:14:45;11.30;99.90
41447;DHT22;27185;52.040;4.490;2023-02-20T11:17:31;11.30;99.90
41447;DHT22;27185;52.040;4.490;2023-02-20T11:23:38;11.30;99.90
41447;DHT22;27185;52.040;4.490;2023-02-20T11:29:14;11.30;99.90
41447;DHT22;27185;52.040;4.490;2023-02-20T11:32:27;11.40;99.90
41447;DHT22;27185;52.040;4.490;2023-02-20T11:41:26;11.50;99.90
41447;DHT22;27185;52.040;4.490;2023-02-20T11:44:18;11.60;99.90
41447;DHT22;27185;52.040;4.490;2023-02-20T11:47:30;11.70;99.90
41447;DHT22;27185;52.040;4.490;2023-02-20T11:50:18;11.70;99.90
41447;DHT22;27185;52.040;4.490;2023-02-20T11:53:04;11.60;99.90
41447;DHT22;27185;52.040;4.490;2023-02-20T11:56:16;11.60;99.90
41447;DHT22;27185;52.040;4.490;2023-02-20T12:10:46;11.90;99.90
41447;DHT22;27185;52.040;4.490;2023-02-20T12:13:37;11.90;99.90
41447;DHT22;27185;52.040;4.490;2023-02-20T12:25:23;11.90;99.90
41447;DHT22;27185;52.040;4.490;2023-02-20T12:34:45;11.90;99.90
41447;DHT22;27185;52.040;4.490;2023-02-20T12:37:53;11.80;99.90
41447;DHT22;27185;52.040;4.490;2023-02-20T12:52:48;11.90;99.90
41447;DHT22;27185;52.040;4.490;2023-02-20T12:56:12;12.00;99.90
41447;DHT22;27185;52.040;4.490;2023-02-20T12:59:23;11.90;99.90
41447;DHT22;27185;52.040;4.490;2023-02-20T13:02:36;11.90;99.90
41447;DHT22;27185;52.040;4.490;2023-02-20T13:05:25;11.90;99.90
41447;DHT22;27185;52.040;4.490;2023-02-20T13:08:17;11.90;99.90
41447;DHT22;27185;52.040;4.490;2023-02-20T13:11:11;11.90;99.90
41447;DHT22;27185;52.040;4.490;2023-02-20T13:14:06;11.80;99.90
41447;DHT22;27185;52.040;4.490;2023-02-20T13:23:05;11.90;99.90
41447;DHT22;27185;52.040;4.490;2023-02-20T13:29:16;11.90;99.90
41447;DHT22;27185;52.040;4.490;2023-02-20T13:32:29;11.90;99.90
41447;DHT22;27185;52.040;4.490;2023-02-20T13:38:20;11.90;99.90
41447;DHT22;27185;52.040;4.490;2023-02-20T13:41:07;11.90;99.90
41447;DHT22;27185;52.040;4.490;2023-02-20T13:43:53;11.90;99.90
41447;DHT22;27185;52.040;4.490;2023-02-20T13:46:57;11.90;99.90
41447;DHT22;27185;52.040;4.490;2023-02-20T13:52:40;11.90;99.90
41447;DHT22;27185;52.040;4.490;2023-02-20T13:55:26;11.80;99.90
41447;DHT22;27185;52.040;4.490;2023-02-20T13:58:14;11.80;99.90
41447;DHT22;27185;52.040;4.490;2023-02-20T14:01:00;11.80;99.90
41447;DHT22;27185;52.040;4.490;2023-02-20T14:04:02;11.80;99.90
41447;DHT22;27185;52.040;4.490;2023-02-20T14:06:52;11.90;99.90
41447;DHT22;27185;52.040;4.490;2023-02-20T14:09:38;11.90;99.90
41447;DHT22;27185;52.040;4.490;2023-02-20T14:12:24;11.80;99.90
41447;DHT22;27185;52.040;4.490;2023-02-20T14:15:09;11.70;99.90
41447;DHT22;27185;52.040;4.490;2023-02-20T14:17:56;11.70;99.90
41447;DHT22;27185;52.040;4.490;2023-02-20T14:20:42;11.70;99.90
41447;DHT22;27185;52.040;4.490;2023-02-20T14:23:30;11.70;99.90
41447;DHT22;27185;52.040;4.490;2023-02-20T14:26:21;11.70;99.90
41447;DHT22;27185;52.040;4.490;2023-02-20T14:29:21;11.60;99.90
41447;DHT22;27185;52.040;4.490;2023-02-20T14:32:11;11.70;99.90
41447;DHT22;27185;52.040;4.490;2023-02-20T14:41:18;11.70;99.90
41447;DHT22;27185;52.040;4.490;2023-02-20T14:44:14;11.60;99.90
41447;DHT22;27185;52.040;4.490;2023-02-20T14:47:14;11.60;99.90
41447;DHT22;27185;52.040;4.490;2023-02-20T14:50:15;11.70;99.90
41447;DHT22;27185;52.040;4.490;2023-02-20T14:53:16;11.70;99.90
41447;DHT22;27185;52.040;4.490;2023-02-20T14:56:16;11.70;99.90
41447;DHT22;27185;52.040;4.490;2023-02-20T14:59:31;11.80;99.90
41447;DHT22;27185;52.040;4.490;2023-02-20T15:02:21;11.80;99.90
41447;DHT22;27185;52.040;4.490;2023-02-20T15:05:09;11.80;99.90
41447;DHT22;27185;52.040;4.490;2023-02-20T15:11:09;11.60;99.90
41447;DHT22;27185;52.040;4.490;2023-02-20T15:13:56;11.70;99.90
41447;DHT22;27185;52.040;4.490;2023-02-20T15:16:42;11.70;99.90
41447;DHT22;27185;52.040;4.490;2023-02-20T15:19:34;11.60;99.90
41447;DHT22;27185;52.040;4.490;2023-02-20T15:25:33;11.60;99.90
41447;DHT22;27185;52.040;4.490;2023-02-20T15:33:54;11.70;99.90
41447;DHT22;27185;52.040;4.490;2023-02-20T15:36:40;11.60;99.90
41447;DHT22;27185;52.040;4.490;2023-02-20T15:39:26;11.70;99.90
41447;DHT22;27185;52.040;4.490;2023-02-20T15:42:12;11.60;99.90
41447;DHT22;27185;52.040;4.490;2023-02-20T15:44:58;11.60;99.90
41447;DHT22;27185;52.040;4.490;2023-02-20T15:47:43;11.60;99.90
41447;DHT22;27185;52.040;4.490;2023-02-20T15:50:29;11.60;99.90
41447;DHT22;27185;52.040;4.490;2023-02-20T15:53:24;11.60;99.90
41447;DHT22;27185;52.040;4.490;2023-02-20T15:56:10;11.50;99.90
41447;DHT22;27185;52.040;4.490;2023-02-20T15:59:00;11.60;99.90
41447;DHT22;27185;52.040;4.490;2023-02-20T16:01:46;11.50;99.90
41447;DHT22;27185;52.040;4.490;2023-02-20T16:04:32;11.40;99.90
41447;DHT22;27185;52.040;4.490;2023-02-20T16:07:19;11.50;99.90
41447;DHT22;27185;52.040;4.490;2023-02-20T16:10:05;11.40;99.90
41447;DHT22;27185;52.040;4.490;2023-02-20T16:12:55;11.40;99.90
41447;DHT22;27185;52.040;4.490;2023-02-20T16:15:42;11.40;99.90
41447;DHT22;27185;52.040;4.490;2023-02-20T16:18:28;11.30;99.90
41447;DHT22;27185;52.040;4.490;2023-02-20T16:21:14;11.30;99.90
41447;DHT22;27185;52.040;4.490;2023-02-20T16:24:01;11.20;99.90
41447;DHT22;27185;52.040;4.490;2023-02-20T16:26:48;11.30;99.90
41447;DHT22;27185;52.040;4.490;2023-02-20T16:29:35;11.30;99.90
41447;DHT22;27185;52.040;4.490;2023-02-20T16:32:25;11.30;99.90
41447;DHT22;27185;52.040;4.490;2023-02-20T16:35:12;11.30;99.90
41447;DHT22;27185;52.040;4.490;2023-02-20T16:37:58;11.20;99.90
41447;DHT22;27185;52.040;4.490;2023-02-20T16:40:44;11.20;99.90
41447;DHT22;27185;52.040;4.490;2023-02-20T16:43:30;11.20;99.90
41447;DHT22;27185;52.040;4.490;2023-02-20T16:46:16;11.20;99.90
41447;DHT22;27185;52.040;4.490;2023-02-20T16:49:01;11.20;99.90
41447;DHT22;27185;52.040;4.490;2023-02-20T16:51:47;11.20;99.90
41447;DHT22;27185;52.040;4.490;2023-02-20T16:54:45;11.10;99.90
41447;DHT22;27185;52.040;4.490;2023-02-20T16:57:31;11.10;99.90
41447;DHT22;27185;52.040;4.490;2023-02-20T17:00:19;11.20;99.90
41447;DHT22;27185;52.040;4.490;2023-02-20T17:03:05;11.20;99.90
41447;DHT22;27185;52.040;4.490;2023-02-20T17:05:51;11.10;99.90
41447;DHT22;27185;52.040;4.490;2023-02-20T17:08:43;11.10;99.90
41447;DHT22;27185;52.040;4.490;2023-02-20T17:11:29;11.10;99.90
41447;DHT22;27185;52.040;4.490;2023-02-20T17:14:15;11.10;99.90
41447;DHT22;27185;52.040;4.490;2023-02-20T17:17:00;11.10;99.90
41447;DHT22;27185;52.040;4.490;2023-02-20T17:19:50;11.00;99.90
41447;DHT22;27185;52.040;4.490;2023-02-20T17:22:39;11.00;99.90
41447;DHT22;27185;52.040;4.490;2023-02-20T17:25:27;11.00;99.90
41447;DHT22;27185;52.040;4.490;2023-02-20T17:28:12;11.00;99.90
41447;DHT22;27185;52.040;4.490;2023-02-20T17:31:00;11.00;99.90
41447;DHT22;27185;52.040;4.490;2023-02-20T17:33:45;10.90;99.90
41447;DHT22;27185;52.040;4.490;2023-02-20T17:36:31;10.90;99.90
41447;DHT22;27185;52.040;4.490;2023-02-20T17:39:19;11.00;99.90
41447;DHT22;27185;52.040;4.490;2023-02-20T17:42:06;11.00;99.90
41447;DHT22;27185;52.040;4.490;2023-02-20T17:44:51;10.90;99.90
41447;DHT22;27185;52.040;4.490;2023-02-20T17:47:37;10.90;99.90
41447;DHT22;27185;52.040;4.490;2023-02-20T17:50:23;10.90;99.90
41447;DHT22;27185;52.040;4.490;2023-02-20T17:53:09;10.90;99.90
41447;DHT22;27185;52.040;4.490;2023-02-20T17:55:55;10.90;99.90
41447;DHT22;27185;52.040;4.490;2023-02-20T17:58:42;10.90;99.90
41447;DHT22;27185;52.040;4.490;2023-02-20T18:01:28;10.90;99.90
41447;DHT22;27185;52.040;4.490;2023-02-20T18:04:13;10.90;99.90
41447;DHT22;27185;52.040;4.490;2023-02-20T18:06:59;10.90;99.90
41447;DHT22;27185;52.040;4.490;2023-02-20T18:09:45;10.80;99.90
41447;DHT22;27185;52.040;4.490;2023-02-20T18:12:30;10.80;99.90
41447;DHT22;27185;52.040;4.490;2023-02-20T18:15:16;10.80;99.90
41447;DHT22;27185;52.040;4.490;2023-02-20T18:18:04;10.80;99.90
41447;DHT22;27185;52.040;4.490;2023-02-20T18:20:49;10.80;99.90
41447;DHT22;27185;52.040;4.490;2023-02-20T18:23:35;10.80;99.90
41447;DHT22;27185;52.040;4.490;2023-02-20T18:26:21;10.80;99.90
41447;DHT22;27185;52.040;4.490;2023-02-20T18:29:06;10.80;99.90
41447;DHT22;27185;52.040;4.490;2023-02-20T18:31:53;10.70;99.90
41447;DHT22;27185;52.040;4.490;2023-02-20T18:34:40;10.80;99.90
41447;DHT22;27185;52.040;4.490;2023-02-20T18:37:26;10.80;99.90
41447;DHT22;27185;52.040;4.490;2023-02-20T18:40:12;10.80;99.90
41447;DHT22;27185;52.040;4.490;2023-02-20T18:42:57;10.80;99.90
41447;DHT22;27185;52.040;4.490;2023-02-20T18:45:43;10.80;99.90
41447;DHT22;27185;52.040;4.490;2023-02-20T18:48:29;10.80;99.90
41447;DHT22;27185;52.040;4.490;2023-02-20T18:51:14;10.90;99.90
41447;DHT22;27185;52.040;4.490;2023-02-20T18:54:00;10.90;99.90
41447;DHT22;27185;52.040;4.490;2023-02-20T18:56:47;10.90;99.90
41447;DHT22;27185;52.040;4.490;2023-02-20T18:59:34;10.90;99.90
41447;DHT22;27185;52.040;4.490;2023-02-20T19:02:23;10.90;99.90
41447;DHT22;27185;52.040;4.490;2023-02-20T19:05:09;10.90;99.90
41447;DHT22;27185;52.040;4.490;2023-02-20T19:07:55;10.90;99.90
41447;DHT22;27185;52.040;4.490;2023-02-20T19:10:40;10.90;99.90
41447;DHT22;27185;52.040;4.490;2023-02-20T19:13:26;10.90;99.90
41447;DHT22;27185;52.040;4.490;2023-02-20T19:16:12;10.90;99.90
41447;DHT22;27185;52.040;4.490;2023-02-20T19:18:58;10.90;99.90
41447;DHT22;27185;52.040;4.490;2023-02-20T19:21:44;10.90;99.90
41447;DHT22;27185;52.040;4.490;2023-02-20T19:24:29;10.90;99.90
41447;DHT22;27185;52.040;4.490;2023-02-20T19:27:15;10.90;99.90
41447;DHT22;27185;52.040;4.490;2023-02-20T19:30:01;10.90;99.90
41447;DHT22;27185;52.040;4.490;2023-02-20T19:32:46;10.80;99.90
41447;DHT22;27185;52.040;4.490;2023-02-20T19:35:34;10.80;99.90
41447;DHT22;27185;52.040;4.490;2023-02-20T19:38:19;10.80;99.90
41447;DHT22;27185;52.040;4.490;2023-02-20T19:41:06;10.80;99.90